Time;durP1;ratioP1;P1;durP2;ratioP2;P2;SDS_P1;SDS_P2;PMS_P1;PMS_P2;Temp;Humidity;BMP_temperature;BMP_pressure;BME280_temperature;BME280_humidity;BME280_pressure;Samples;Min_cycle;Max_cycle;Signal;HPM_P1;HPM_P2
2023/09/16 00:00:08;;;;;;;12.80;7.00;;;;;;;20.10;100.00;99457.81;5109034;28;20633;-64
2023/09/16 00:02:35;;;;;;;10.07;6.63;;;;;;;20.02;100.00;99458.66;5108686;28;20203;-64
2023/09/16 00:05:02;;;;;;;12.63;6.90;;;;;;;20.07;100.00;99468.53;5108378;28;20214;-64
2023/09/16 00:07:31;;;;;;;11.57;7.00;;;;;;;20.02;100.00;99463.84;5108994;28;20203;-64
2023/09/16 00:09:58;;;;;;;11.07;6.83;;;;;;;20.03;100.00;99470.63;5108887;28;20698;-64
2023/09/16 00:12:25;;;;;;;11.93;7.10;;;;;;;20.08;100.00;99472.75;5107947;28;20200;-64
2023/09/16 00:14:52;;;;;;;10.83;6.83;;;;;;;20.07;100.00;99477.16;5108643;28;20199;-64
2023/09/16 00:17:19;;;;;;;15.67;7.13;;;;;;;20.05;100.00;99466.09;5108988;28;20207;-64
2023/09/16 00:19:46;;;;;;;12.00;6.30;;;;;;;20.08;100.00;99473.56;5108082;28;20195;-64
2023/09/16 00:22:13;;;;;;;11.20;7.07;;;;;;;20.09;100.00;99479.56;5108431;28;20206;-64
2023/09/16 00:24:42;;;;;;;11.03;6.73;;;;;;;20.06;100.00;99478.09;5108824;28;20196;-64
2023/09/16 00:27:08;;;;;;;11.37;6.57;;;;;;;20.00;100.00;99483.94;5108504;28;20228;-64
2023/09/16 00:29:35;;;;;;;9.80;6.47;;;;;;;19.95;100.00;99481.00;5107871;28;20699;-64
2023/09/16 00:32:04;;;;;;;10.50;6.23;;;;;;;20.04;100.00;99487.03;5108703;28;20198;-64
2023/09/16 00:34:30;;;;;;;11.07;6.90;;;;;;;20.07;100.00;99487.53;5108317;28;20673;-64
2023/09/16 00:36:57;;;;;;;10.40;6.40;;;;;;;19.99;100.00;99484.94;5107635;28;20198;-64
2023/09/16 00:39:24;;;;;;;8.37;6.33;;;;;;;19.99;100.00;99491.91;5108332;28;20203;-64
2023/09/16 00:41:53;;;;;;;11.60;6.23;;;;;;;19.99;100.00;99490.13;5108147;28;20203;-64
2023/09/16 00:44:19;;;;;;;12.50;6.60;;;;;;;20.02;100.00;99486.38;5107327;28;20714;-64
2023/09/16 00:46:46;;;;;;;9.30;6.07;;;;;;;20.01;100.00;99488.19;5108033;28;20581;-64
2023/09/16 00:49:13;;;;;;;9.57;6.27;;;;;;;19.97;100.00;99486.06;5108866;28;20203;-64
2023/09/16 00:51:44;;;;;;;10.13;5.90;;;;;;;20.00;100.00;99486.53;5107219;28;20211;-64
2023/09/16 00:54:12;;;;;;;8.70;5.77;;;;;;;20.00;100.00;99486.53;5108075;28;20646;-64
2023/09/16 00:56:40;;;;;;;9.60;5.90;;;;;;;19.89;100.00;99485.06;5108133;28;20711;-64
2023/09/16 00:59:09;;;;;;;10.67;6.27;;;;;;;19.86;100.00;99494.97;5107799;28;20202;-64
2023/09/16 01:01:38;;;;;;;11.43;6.80;;;;;;;19.79;100.00;99489.59;5107555;28;20203;-64
2023/09/16 01:04:07;;;;;;;10.97;6.37;;;;;;;19.74;100.00;99493.66;5108099;28;20544;-64
2023/09/16 01:06:34;;;;;;;11.33;6.23;;;;;;;19.73;100.00;99489.44;5107702;28;20356;-64
2023/09/16 01:09:00;;;;;;;10.00;6.47;;;;;;;19.68;100.00;99495.91;5107172;28;20193;-64
2023/09/16 01:11:27;;;;;;;11.67;6.47;;;;;;;19.63;100.00;99490.38;5108028;28;20244;-64
2023/09/16 01:13:54;;;;;;;12.13;6.33;;;;;;;19.53;100.00;99488.88;5107961;28;20222;-65
2023/09/16 01:16:29;;;;;;;8.70;5.87;;;;;;;19.56;100.00;99486.78;5106938;28;20202;-64
2023/09/16 01:19:01;;;;;;;12.43;6.23;;;;;;;19.50;100.00;99492.59;5107689;28;20196;-64
2023/09/16 01:21:29;;;;;;;11.63;6.37;;;;;;;19.52;100.00;99488.06;5108005;28;20232;-64
2023/09/16 01:24:16;;;;;;;12.40;6.27;;;;;;;19.49;100.00;99498.78;5106974;28;20199;-64
2023/09/16 01:26:45;;;;;;;10.80;6.50;;;;;;;19.38;100.00;99496.47;5107368;28;20201;-64
2023/09/16 01:29:13;;;;;;;10.87;6.07;;;;;;;19.32;100.00;99497.09;5107974;28;20194;-64
2023/09/16 01:31:40;;;;;;;11.20;6.33;;;;;;;19.37;100.00;99497.41;5107240;28;20235;-64
2023/09/16 01:34:14;;;;;;;10.77;6.33;;;;;;;19.34;100.00;99502.91;5107171;28;20201;-64
2023/09/16 01:36:43;;;;;;;13.53;6.77;;;;;;;19.30;100.00;99505.00;5108046;28;20193;-64
2023/09/16 01:39:11;;;;;;;11.17;6.17;;;;;;;19.31;100.00;99511.81;5107505;28;20229;-64
2023/09/16 01:41:39;;;;;;;9.97;6.17;;;;;;;19.31;100.00;99505.81;5106992;28;20203;-64
2023/09/16 01:44:08;;;;;;;10.47;6.53;;;;;;;19.30;100.00;99504.22;5107696;28;20233;-64
2023/09/16 01:46:35;;;;;;;11.90;6.43;;;;;;;19.30;100.00;99499.03;5107573;28;20602;-64
2023/09/16 01:49:01;;;;;;;10.17;5.80;;;;;;;19.27;100.00;99494.97;5106265;28;20208;-64
2023/09/16 01:51:28;;;;;;;12.87;6.23;;;;;;;19.32;100.00;99502.28;5106339;28;20241;-64
2023/09/16 01:53:55;;;;;;;9.90;5.90;;;;;;;19.23;100.00;99510.03;5106783;28;20210;-64
2023/09/16 01:56:22;;;;;;;8.03;5.07;;;;;;;19.21;100.00;99517.13;5107815;28;20246;-64
2023/09/16 01:58:49;;;;;;;8.60;5.20;;;;;;;19.16;100.00;99508.19;5107327;28;20205;-64
2023/09/16 02:01:17;;;;;;;9.73;5.90;;;;;;;19.19;100.00;99519.06;5106656;28;20678;-64
2023/09/16 02:03:45;;;;;;;9.10;5.93;;;;;;;19.21;100.00;99513.72;5107106;28;20205;-64
2023/09/16 02:06:11;;;;;;;8.07;5.57;;;;;;;19.17;100.00;99510.66;5107508;28;20568;-64
2023/09/16 02:08:38;;;;;;;8.77;5.67;;;;;;;19.19;100.00;99508.69;5107365;28;20203;-64
2023/09/16 02:11:05;;;;;;;9.23;5.57;;;;;;;19.16;100.00;99518.56;5106725;28;20225;-64
2023/09/16 02:13:32;;;;;;;11.97;5.70;;;;;;;19.14;100.00;99521.31;5107330;28;20879;-64
2023/09/16 02:15:59;;;;;;;8.57;5.40;;;;;;;19.12;100.00;99523.25;5110254;28;20489;-64
2023/09/16 02:18:27;;;;;;;9.67;6.10;;;;;;;19.13;100.00;99524.88;5110096;28;20282;-64
2023/09/16 02:20:54;;;;;;;9.90;5.87;;;;;;;19.08;100.00;99519.34;5111287;28;20198;-64
2023/09/16 02:23:21;;;;;;;10.83;6.20;;;;;;;19.04;100.00;99515.44;5111355;28;20224;-64
2023/09/16 02:25:48;;;;;;;10.63;5.90;;;;;;;18.97;100.00;99517.03;5109935;28;20204;-64
2023/09/16 02:28:15;;;;;;;13.10;5.80;;;;;;;19.02;100.00;99517.34;5111213;28;20200;-64
2023/09/16 02:30:42;;;;;;;10.63;5.70;;;;;;;19.00;100.00;99514.13;5111299;28;20228;-64
2023/09/16 02:33:09;;;;;;;10.23;6.20;;;;;;;18.96;100.00;99512.78;5110105;28;20217;-64
2023/09/16 02:35:39;;;;;;;12.10;5.97;;;;;;;18.89;100.00;99509.22;5110284;28;20286;-64
2023/09/16 02:38:06;;;;;;;10.20;5.90;;;;;;;18.96;100.00;99510.22;5111110;28;20584;-64
2023/09/16 02:40:33;;;;;;;12.73;6.03;;;;;;;18.92;100.00;99514.09;5110343;28;20196;-64
2023/09/16 02:43:00;;;;;;;7.97;5.47;;;;;;;18.93;100.00;99513.91;5109921;28;20194;-64
2023/09/16 02:45:27;;;;;;;8.50;5.00;;;;;;;18.82;100.00;99521.97;5110648;28;20232;-64
2023/09/16 02:47:53;;;;;;;11.60;6.77;;;;;;;18.88;100.00;99521.34;5110207;28;20686;-64
2023/09/16 02:50:20;;;;;;;10.23;6.30;;;;;;;18.89;100.00;99511.81;5109837;28;20267;-65
2023/09/16 02:52:48;;;;;;;10.13;5.80;;;;;;;18.89;100.00;99506.63;5110324;28;20198;-64
2023/09/16 02:55:16;;;;;;;10.87;5.97;;;;;;;18.87;100.00;99513.72;5110691;28;20215;-64
2023/09/16 02:57:42;;;;;;;13.23;5.67;;;;;;;18.87;100.00;99513.72;5109430;28;20254;-64
2023/09/16 03:00:10;;;;;;;11.10;6.37;;;;;;;18.83;100.00;99512.41;5110351;28;20671;-64
2023/09/16 03:02:37;;;;;;;11.10;6.03;;;;;;;18.80;100.00;99523.09;5110769;28;20197;-64
2023/09/16 03:05:04;;;;;;;12.33;6.57;;;;;;;18.81;100.00;99522.13;5109825;28;20207;-64
2023/09/16 03:07:31;;;;;;;9.93;6.37;;;;;;;18.95;100.00;99526.72;5109511;28;20204;-64
2023/09/16 03:09:59;;;;;;;12.13;6.40;;;;;;;18.91;100.00;99526.22;5110187;28;20216;-65
2023/09/16 03:12:26;;;;;;;11.37;6.73;;;;;;;18.90;100.00;99528.97;5109738;28;20652;-64
2023/09/16 03:14:52;;;;;;;9.30;6.03;;;;;;;18.90;100.00;99528.97;5109257;28;20204;-64
2023/09/16 03:17:19;;;;;;;12.57;6.63;;;;;;;18.92;100.00;99527.03;5109995;28;20205;-64
2023/09/16 03:19:46;;;;;;;7.87;5.30;;;;;;;18.93;100.00;99523.47;5109768;28;20590;-64
2023/09/16 03:22:13;;;;;;;21.43;6.40;;;;;;;18.90;100.00;99534.16;5109000;28;20194;-64
2023/09/16 03:24:40;;;;;;;11.57;7.03;;;;;;;18.92;100.00;99537.41;5109425;28;20661;-64
2023/09/16 03:27:08;;;;;;;11.83;6.13;;;;;;;18.98;100.00;99540.19;5109653;28;20213;-64
2023/09/16 03:29:35;;;;;;;11.67;6.70;;;;;;;18.92;100.00;99537.41;5108858;28;20824;-63
2023/09/16 03:32:01;;;;;;;11.27;6.43;;;;;;;18.97;100.00;99540.34;5109206;28;20989;-64
2023/09/16 03:34:28;;;;;;;13.37;6.80;;;;;;;19.04;100.00;99533.56;5109828;28;20196;-64
2023/09/16 03:36:55;;;;;;;10.73;6.50;;;;;;;19.01;100.00;99533.88;5109245;28;20233;-64
2023/09/16 03:39:22;;;;;;;16.43;6.90;;;;;;;19.03;100.00;99538.94;5109020;28;20208;-64
2023/09/16 03:41:49;;;;;;;14.90;6.70;;;;;;;19.12;100.00;99538.81;5109495;28;20193;-64
2023/09/16 03:44:17;;;;;;;11.60;6.33;;;;;;;19.15;100.00;99548.88;5109487;28;20219;-64
2023/09/16 03:46:44;;;;;;;11.23;6.77;;;;;;;19.13;100.00;99548.19;5108467;28;20198;-64
2023/09/16 03:49:11;;;;;;;12.10;6.67;;;;;;;19.12;100.00;99554.34;5109576;28;20201;-64
2023/09/16 03:51:38;;;;;;;14.17;7.23;;;;;;;19.20;100.00;99562.19;5109291;28;20238;-64
2023/09/16 03:54:06;;;;;;;12.33;7.27;;;;;;;19.19;100.00;99562.31;5108345;28;20512;-64
2023/09/16 03:56:33;;;;;;;11.03;6.40;;;;;;;19.32;100.00;99565.31;5108973;28;20285;-64
2023/09/16 03:59:00;;;;;;;13.30;7.57;;;;;;;19.34;100.00;99570.31;5108963;28;20233;-64
2023/09/16 04:01:28;;;;;;;12.03;7.53;;;;;;;19.35;100.00;99574.56;5108978;28;20214;-64
2023/09/16 04:03:55;;;;;;;13.37;6.90;;;;;;;19.35;100.00;99571.97;5108738;28;20582;-64
2023/09/16 04:06:22;;;;;;;12.70;7.03;;;;;;;19.36;100.00;99576.19;5109134;28;20202;-64
2023/09/16 04:08:49;;;;;;;12.23;7.27;;;;;;;19.35;100.00;99575.38;5108482;28;20203;-64
2023/09/16 04:11:16;;;;;;;14.07;7.40;;;;;;;19.39;100.00;99581.06;5107924;28;20323;-64
2023/09/16 04:13:43;;;;;;;12.77;7.13;;;;;;;19.32;100.00;99587.84;5108862;28;20194;-65
2023/09/16 04:16:11;;;;;;;12.40;6.80;;;;;;;19.47;100.00;99588.88;5108872;28;20224;-64
2023/09/16 04:18:39;;;;;;;13.47;7.17;;;;;;;19.43;100.00;99598.75;5108414;28;20253;-64
2023/09/16 04:21:06;;;;;;;11.73;6.37;;;;;;;19.59;100.00;99603.19;5108652;28;20575;-64
2023/09/16 04:23:34;;;;;;;15.60;6.87;;;;;;;19.61;100.00;99605.63;5108637;28;20262;-64
2023/09/16 04:26:02;;;;;;;14.20;6.77;;;;;;;19.59;100.00;99603.19;5107971;28;20202;-63
2023/09/16 04:28:29;;;;;;;15.07;7.00;;;;;;;19.62;100.00;99604.66;5108178;28;20588;-64
2023/09/16 04:30:56;;;;;;;12.63;6.90;;;;;;;19.61;100.00;99606.44;5108449;28;20236;-64
2023/09/16 04:33:23;;;;;;;9.97;5.57;;;;;;;19.67;100.00;99611.03;5108055;28;20738;-64
2023/09/16 04:35:52;;;;;;;14.90;6.80;;;;;;;19.70;100.00;99609.09;5107653;28;20214;-64
2023/09/16 04:38:19;;;;;;;10.57;6.37;;;;;;;19.71;100.00;99626.28;5107790;28;20209;-64
2023/09/16 04:40:47;;;;;;;12.43;7.03;;;;;;;19.73;100.00;99624.34;5108388;28;20206;-64
2023/09/16 04:43:14;;;;;;;12.27;6.83;;;;;;;19.77;100.00;99620.47;5107557;28;20688;-64
2023/09/16 04:45:43;;;;;;;11.13;6.00;;;;;;;19.81;100.00;99626.97;5108528;28;20214;-64
2023/09/16 04:48:13;;;;;;;11.57;6.67;;;;;;;19.88;100.00;99617.59;5108390;28;20198;-64
2023/09/16 04:50:41;;;;;;;9.23;6.07;;;;;;;19.85;100.00;99617.91;5107369;28;20205;-64
2023/09/16 04:53:09;;;;;;;12.53;6.67;;;;;;;19.79;100.00;99623.72;5108027;28;20221;-64
2023/09/16 04:55:36;;;;;;;12.80;6.67;;;;;;;19.71;100.00;99623.69;5108195;28;20200;-64
2023/09/16 04:58:03;;;;;;;14.43;6.63;;;;;;;19.63;100.00;99630.44;5107780;28;20254;-64
2023/09/16 05:00:33;;;;;;;10.50;6.73;;;;;;;19.63;100.00;99635.66;5107999;28;20227;-64
2023/09/16 05:03:00;;;;;;;10.67;6.57;;;;;;;19.57;100.00;99636.22;5108042;28;20693;-65
2023/09/16 05:05:27;;;;;;;12.43;7.00;;;;;;;19.51;100.00;99636.84;5108040;28;20203;-65
2023/09/16 05:07:54;;;;;;;13.37;7.23;;;;;;;19.48;100.00;99639.75;5107876;28;20205;-64
2023/09/16 05:10:22;;;;;;;11.17;6.63;;;;;;;19.48;100.00;99638.97;5107910;28;20221;-64
2023/09/16 05:12:49;;;;;;;12.87;6.73;;;;;;;19.42;100.00;99642.97;5108050;28;20253;-65
2023/09/16 05:15:15;;;;;;;13.47;7.07;;;;;;;19.40;100.00;99642.31;5108043;28;20229;-65
2023/09/16 05:17:42;;;;;;;12.50;6.90;;;;;;;19.37;100.00;99645.22;5107916;28;20712;-64
2023/09/16 05:20:09;;;;;;;12.37;7.27;;;;;;;19.38;100.00;99636.47;5108349;28;20209;-64
2023/09/16 05:22:38;;;;;;;12.07;6.63;;;;;;;19.31;100.00;99640.63;5107974;28;20612;-64
2023/09/16 05:25:05;;;;;;;12.07;7.07;;;;;;;19.30;100.00;99644.22;5107780;28;20660;-64
2023/09/16 05:27:34;;;;;;;11.27;6.87;;;;;;;19.30;100.00;99645.03;5107996;28;20234;-64
2023/09/16 05:30:01;;;;;;;13.60;6.40;;;;;;;19.30;100.00;99641.63;5107938;28;20608;-64
2023/09/16 05:32:29;;;;;;;15.03;7.37;;;;;;;19.23;100.00;99655.19;5107800;28;20861;-64
2023/09/16 05:34:56;;;;;;;13.27;6.97;;;;;;;19.23;100.00;99652.59;5107286;28;20262;-64
2023/09/16 05:37:23;;;;;;;15.03;7.77;;;;;;;19.23;100.00;99649.22;5107336;28;20641;-64
2023/09/16 05:39:49;;;;;;;11.67;7.20;;;;;;;19.22;100.00;99655.34;5107712;28;20193;-64
2023/09/16 05:42:16;;;;;;;16.20;7.83;;;;;;;19.25;100.00;99659.41;5107573;28;20205;-64
2023/09/16 05:44:45;;;;;;;15.10;6.53;;;;;;;19.23;100.00;99665.56;5107922;28;20227;-65
2023/09/16 05:47:11;;;;;;;12.93;7.23;;;;;;;19.25;100.00;99668.00;5107727;28;20426;-65
2023/09/16 05:49:38;;;;;;;11.50;6.57;;;;;;;19.28;100.00;99674.66;5108606;28;20201;-64
2023/09/16 05:52:06;;;;;;;15.33;7.97;;;;;;;19.32;100.00;99683.78;5111957;28;20229;-64
2023/09/16 05:54:33;;;;;;;13.23;6.97;;;;;;;19.33;100.00;99687.97;5111518;28;20697;-64
2023/09/16 05:56:59;;;;;;;14.03;7.27;;;;;;;19.35;100.00;99693.84;5111406;28;20636;-65
2023/09/16 05:59:27;;;;;;;14.90;7.67;;;;;;;19.33;100.00;99690.56;5111419;28;20198;-64
2023/09/16 06:01:55;;;;;;;14.27;6.87;;;;;;;19.26;100.00;99694.72;5111384;28;20717;-64
2023/09/16 06:04:22;;;;;;;15.77;8.03;;;;;;;19.27;100.00;99691.19;5110317;28;20215;-64
2023/09/16 06:06:50;;;;;;;12.43;7.20;;;;;;;19.25;100.00;99687.94;5110591;28;20698;-64
2023/09/16 06:09:17;;;;;;;13.23;6.60;;;;;;;19.27;100.00;99691.19;5111537;28;20264;-64
2023/09/16 06:11:43;;;;;;;15.40;7.40;;;;;;;19.25;100.00;99687.94;5111220;28;20720;-64
2023/09/16 06:14:10;;;;;;;13.30;7.17;;;;;;;19.24;100.00;99681.94;5110299;28;20201;-65
2023/09/16 06:16:37;;;;;;;13.67;6.80;;;;;;;19.23;100.00;99688.91;5111089;28;20193;-65
2023/09/16 06:19:05;;;;;;;14.63;7.93;;;;;;;19.21;100.00;99690.00;5111114;28;20194;-66
2023/09/16 06:21:32;;;;;;;12.53;7.07;;;;;;;19.25;100.00;99680.94;5109890;28;20200;-66
2023/09/16 06:23:59;;;;;;;16.40;8.17;;;;;;;19.26;100.00;99680.00;5109836;28;20239;-66
2023/09/16 06:26:26;;;;;;;15.00;6.60;;;;;;;19.20;100.00;99686.59;5109610;28;20225;-65
2023/09/16 06:28:53;;;;;;;13.00;7.30;;;;;;;19.18;100.00;99691.13;5109304;28;20671;-65
2023/09/16 06:31:19;;;;;;;19.37;8.10;;;;;;;19.23;100.00;99691.50;5110764;28;20208;-66
2023/09/16 06:33:47;;;;;;;14.93;7.33;;;;;;;19.20;100.00;99691.78;5110519;28;20209;-66
2023/09/16 06:36:15;;;;;;;16.50;7.10;;;;;;;19.23;100.00;99699.28;5101105;28;20194;-66
2023/09/16 06:38:42;;;;;;;15.67;7.93;;;;;;;19.26;100.00;99702.50;5110620;28;20215;-65
2023/09/16 06:41:09;;;;;;;14.50;7.47;;;;;;;19.23;100.00;99703.66;5110919;28;20196;-65
2023/09/16 06:43:36;;;;;;;16.37;7.50;;;;;;;19.19;100.00;99705.69;5110031;28;20194;-65
2023/09/16 06:46:03;;;;;;;13.03;7.17;;;;;;;19.18;100.00;99703.28;5110167;28;20470;-65
2023/09/16 06:48:29;;;;;;;16.43;7.90;;;;;;;19.21;100.00;99710.75;5110456;28;20199;-65
2023/09/16 06:50:56;;;;;;;15.83;6.07;;;;;;;19.21;100.00;99714.16;5110437;28;20209;-65
2023/09/16 06:53:24;;;;;;;13.83;7.33;;;;;;;19.26;100.00;99718.06;5110231;28;20495;-65
2023/09/16 06:55:51;;;;;;;17.67;7.73;;;;;;;19.28;100.00;99718.72;5110440;28;20618;-65
2023/09/16 06:58:20;;;;;;;13.47;7.07;;;;;;;19.16;100.00;99713.78;5110464;28;20212;-65
2023/09/16 07:00:47;;;;;;;12.50;7.13;;;;;;;19.17;100.00;99718.03;5109646;28;20195;-65
2023/09/16 07:03:14;;;;;;;12.63;6.90;;;;;;;19.19;100.00;99716.06;5110289;28;20694;-65
2023/09/16 07:05:46;;;;;;;12.07;6.73;;;;;;;19.14;100.00;99713.13;5110562;28;20204;-65
2023/09/16 07:08:13;;;;;;;14.03;6.87;;;;;;;19.17;100.00;99723.22;5110249;28;20228;-65
2023/09/16 07:10:41;;;;;;;15.00;7.17;;;;;;;19.21;100.00;99723.72;5110278;28;20655;-65
2023/09/16 07:13:08;;;;;;;14.63;7.00;;;;;;;19.19;100.00;99726.44;5109758;28;20244;-65
2023/09/16 07:15:35;;;;;;;14.80;7.00;;;;;;;19.25;100.00;99724.22;5109546;28;20218;-65
2023/09/16 07:18:02;;;;;;;12.93;6.57;;;;;;;19.19;100.00;99723.84;5110101;28;20238;-65
2023/09/16 07:20:29;;;;;;;15.03;7.90;;;;;;;19.25;100.00;99726.81;5110157;28;20199;-65
2023/09/16 07:22:57;;;;;;;13.07;6.83;;;;;;;19.21;100.00;99719.34;5109961;28;20202;-65
2023/09/16 07:25:23;;;;;;;15.93;6.93;;;;;;;19.23;100.00;99727.78;5109599;28;20296;-65
2023/09/16 07:27:51;;;;;;;15.10;7.23;;;;;;;19.30;100.00;99732.38;5109792;28;20201;-65
2023/09/16 07:30:18;;;;;;;11.47;6.10;;;;;;;19.33;100.00;99739.84;5109707;28;20579;-65
2023/09/16 07:32:45;;;;;;;13.63;6.97;;;;;;;19.32;100.00;99736.44;5109828;28;20665;-65
2023/09/16 07:35:12;;;;;;;13.93;6.87;;;;;;;19.33;100.00;99737.25;5109783;28;20218;-65
2023/09/16 07:37:39;;;;;;;12.77;7.13;;;;;;;19.34;100.00;99736.28;5109216;28;20208;-65
2023/09/16 07:40:07;;;;;;;14.00;7.10;;;;;;;19.36;100.00;99744.72;5109712;28;20590;-65
2023/09/16 07:42:35;;;;;;;19.57;7.17;;;;;;;19.36;100.00;99752.50;5109362;28;20203;-65
2023/09/16 07:45:04;;;;;;;14.53;6.90;;;;;;;19.33;100.00;99760.59;5109312;28;20265;-65
2023/09/16 07:47:30;;;;;;;13.70;7.57;;;;;;;19.26;100.00;99756.94;5109258;28;20617;-64
2023/09/16 07:49:58;;;;;;;14.00;7.60;;;;;;;19.27;100.00;99759.41;5108916;28;20205;-64
2023/09/16 07:52:24;;;;;;;14.90;7.80;;;;;;;19.33;100.00;99752.81;5108868;28;20229;-64
2023/09/16 07:54:51;;;;;;;14.53;7.80;;;;;;;19.33;100.00;99765.78;5108882;28;20198;-64
2023/09/16 07:57:18;;;;;;;12.63;7.20;;;;;;;19.32;100.00;99756.38;5108962;28;20202;-65
2023/09/16 07:59:45;;;;;;;12.47;6.73;;;;;;;19.36;100.00;99755.09;5108982;28;20216;-65
2023/09/16 08:02:13;;;;;;;14.53;7.13;;;;;;;19.37;100.00;99751.53;5109131;28;20576;-66
2023/09/16 08:04:40;;;;;;;12.73;6.90;;;;;;;19.39;100.00;99758.19;5109023;28;20210;-66
2023/09/16 08:07:07;;;;;;;14.67;7.63;;;;;;;19.36;100.00;99763.69;5108949;27;20204;-64
2023/09/16 08:09:33;;;;;;;14.87;7.67;;;;;;;19.34;100.00;99767.38;5108924;28;20609;-65
2023/09/16 08:12:00;;;;;;;11.20;6.53;;;;;;;19.33;100.00;99769.16;5107925;28;20234;-64
2023/09/16 08:14:27;;;;;;;15.07;7.10;;;;;;;19.37;100.00;99770.50;5109077;28;20197;-63
2023/09/16 08:16:57;;;;;;;14.77;7.37;;;;;;;19.39;100.00;99778.13;5109024;28;20233;-62
2023/09/16 08:19:25;;;;;;;11.77;6.63;;;;;;;19.42;100.00;99778.63;5108703;28;20669;-62
2023/09/16 08:21:53;;;;;;;12.53;6.97;;;;;;;19.39;100.00;99778.94;5108567;28;20194;-62
2023/09/16 08:24:19;;;;;;;14.20;7.33;;;;;;;19.45;100.00;99790.50;5108222;28;20199;-64
2023/09/16 08:26:46;;;;;;;12.53;6.80;;;;;;;19.33;100.00;99789.09;5108546;28;20202;-62
2023/09/16 08:29:13;;;;;;;12.83;7.00;;;;;;;19.32;100.00;99793.47;5109042;28;20202;-62
2023/09/16 08:31:40;;;;;;;13.40;7.33;;;;;;;19.33;100.00;99794.28;5108495;28;20244;-62
2023/09/16 08:34:07;;;;;;;13.90;6.90;;;;;;;19.34;100.00;99785.53;5107823;28;20236;-62
2023/09/16 08:36:35;;;;;;;10.30;6.07;;;;;;;19.39;100.00;99793.69;5108463;28;20204;-62
2023/09/16 08:39:02;;;;;;;9.27;5.90;;;;;;;19.31;100.00;99797.03;5108207;28;20192;-63
2023/09/16 08:41:39;;;;;;;11.13;5.80;;;;;;;19.40;100.00;99800.50;5108543;28;20201;-63
2023/09/16 08:44:06;;;;;;;10.53;5.20;;;;;;;19.41;100.00;99809.91;5108428;28;20860;-63
2023/09/16 08:46:37;;;;;;;9.33;5.70;;;;;;;19.41;100.00;99802.16;5108369;28;20211;-65
2023/09/16 08:49:08;;;;;;;11.30;5.57;;;;;;;19.47;100.00;99801.53;5108458;28;20198;-65
2023/09/16 08:51:42;;;;;;;10.10;5.03;;;;;;;19.44;100.00;99801.84;5108262;28;20207;-64
2023/09/16 08:54:10;;;;;;;9.40;5.27;;;;;;;19.38;100.00;99803.25;5107793;28;20729;-64
2023/09/16 08:56:38;;;;;;;8.20;4.27;;;;;;;19.39;100.00;99799.69;5108337;28;20233;-63
2023/09/16 08:59:04;;;;;;;6.73;4.10;;;;;;;19.35;100.00;99810.53;5108121;28;20197;-64
2023/09/16 09:01:31;;;;;;;7.47;4.67;;;;;;;19.33;100.00;99815.84;5108302;28;20492;-64
2023/09/16 09:03:59;;;;;;;8.97;5.07;;;;;;;19.32;100.00;99813.41;5108109;28;20750;-63
2023/09/16 09:06:28;;;;;;;6.90;4.43;;;;;;;19.32;100.00;99808.22;5108325;28;20660;-63
2023/09/16 09:08:56;;;;;;;11.10;5.10;;;;;;;19.33;100.00;99799.47;5108025;28;20211;-63
2023/09/16 09:11:24;;;;;;;11.60;4.90;;;;;;;19.23;100.00;99821.13;5108162;28;20723;-62
2023/09/16 09:13:51;;;;;;;8.07;4.40;;;;;;;19.32;100.00;99823.78;5107757;28;20233;-63
2023/09/16 09:16:19;;;;;;;7.97;4.23;;;;;;;19.29;100.00;99821.50;5108250;28;20586;-63
2023/09/16 09:18:48;;;;;;;7.57;4.30;;;;;;;19.40;100.00;99821.25;5108145;28;20205;-62
2023/09/16 09:21:16;;;;;;;7.97;4.73;;;;;;;19.22;100.00;99829.84;5108184;28;20203;-63
2023/09/16 09:23:42;;;;;;;6.23;4.37;;;;;;;19.32;100.00;99839.34;5108848;28;20254;-62
2023/09/16 09:26:12;;;;;;;7.87;4.73;;;;;;;19.47;100.00;99837.84;5112240;28;20203;-63
2023/09/16 09:28:39;;;;;;;6.33;4.30;;;;;;;19.53;100.00;99837.25;5112485;28;20205;-63
2023/09/16 09:31:06;;;;;;;7.87;4.20;;;;;;;19.59;100.00;99841.81;5112237;28;20202;-63
2023/09/16 09:33:40;;;;;;;6.77;4.37;;;;;;;19.65;100.00;99836.06;5111789;28;20241;-62
2023/09/16 09:36:15;;;;;;;8.03;4.63;;;;;;;19.56;100.00;99841.31;5110853;28;20197;-62
2023/09/16 09:38:43;;;;;;;8.50;4.63;;;;;;;19.59;100.00;99839.22;5111601;28;20202;-62
2023/09/16 09:41:12;;;;;;;7.20;4.10;;;;;;;19.47;100.00;99837.84;5111358;28;20197;-62
2023/09/16 09:43:38;;;;;;;8.53;4.47;;;;;;;19.51;100.00;99835.75;5111103;28;20202;-62
2023/09/16 09:46:05;;;;;;;9.00;5.03;;;;;;;19.55;100.00;99837.91;5109981;28;20205;-62
2023/09/16 09:48:35;;;;;;;6.83;4.57;;;;;;;19.51;100.00;99838.34;5109847;28;20209;-62
2023/09/16 09:51:02;;;;;;;7.40;4.33;;;;;;;19.49;100.00;99841.13;5109669;28;20214;-62
2023/09/16 09:53:30;;;;;;;8.10;5.03;;;;;;;19.59;100.00;99839.22;5109934;28;20756;-63
2023/09/16 09:55:57;;;;;;;7.20;4.80;;;;;;;19.66;100.00;99848.09;5109851;28;20199;-62
2023/09/16 09:58:26;;;;;;;7.73;4.30;;;;;;;19.76;100.00;99842.00;5109938;28;20206;-62
2023/09/16 10:00:53;;;;;;;8.40;4.90;;;;;;;19.75;100.00;99835.16;5110157;28;20206;-62
2023/09/16 10:03:22;;;;;;;7.67;4.30;;;;;;;19.80;100.00;99840.72;5111372;28;20201;-62
2023/09/16 10:05:49;;;;;;;7.20;4.57;;;;;;;19.81;100.00;99837.13;5111081;28;20204;-61
2023/09/16 10:08:16;;;;;;;7.33;4.03;;;;;;;19.85;100.00;99831.50;5109961;28;20564;-62
2023/09/16 10:10:43;;;;;;;8.60;4.43;;;;;;;19.94;100.00;99829.78;5111296;28;20212;-62
2023/09/16 10:13:10;;;;;;;8.33;4.67;;;;;;;19.98;100.00;99836.28;5111568;28;20235;-62
2023/09/16 10:15:40;;;;;;;8.77;4.60;;;;;;;20.02;100.00;99832.44;5111246;28;20255;-61
2023/09/16 10:18:08;;;;;;;7.63;4.40;;;;;;;19.98;100.00;99830.28;5111206;28;20638;-62
2023/09/16 10:20:38;;;;;;;8.67;5.03;;;;;;;19.98;100.00;99823.31;5111007;28;20257;-61
2023/09/16 10:23:05;;;;;;;6.87;4.47;;;;;;;19.99;100.00;99827.53;5111289;28;20661;-61
2023/09/16 10:25:33;;;;;;;7.43;4.70;;;;;;;20.02;100.00;99824.63;5111043;28;20201;-61
2023/09/16 10:28:02;;;;;;;8.10;4.43;;;;;;;20.05;100.00;99820.94;5111053;28;20230;-61
2023/09/16 10:30:30;;;;;;;8.40;4.53;;;;;;;20.05;100.00;99826.94;5111203;28;20284;-67
2023/09/16 10:33:00;;;;;;;7.90;4.60;;;;;;;20.06;100.00;99818.16;5110648;28;20230;-68
2023/09/16 10:35:28;;;;;;;9.63;5.53;;;;;;;20.05;100.00;99811.34;5109778;28;20203;-67
2023/09/16 10:37:57;;;;;;;7.83;4.80;;;;;;;20.09;100.00;99817.84;5110718;28;20196;-66
2023/09/16 10:40:24;;;;;;;12.47;5.57;;;;;;;20.03;100.00;99818.47;5110948;28;20317;-67
2023/09/16 10:42:52;;;;;;;10.80;6.10;;;;;;;20.09;100.00;99814.44;5110881;28;20206;-66
2023/09/16 10:45:21;;;;;;;9.80;6.00;;;;;;;20.04;100.00;99809.72;5110389;28;20207;-66
2023/09/16 10:47:50;;;;;;;10.63;5.97;;;;;;;20.06;100.00;99807.78;5108978;28;20200;-67
2023/09/16 10:50:18;;;;;;;11.03;6.73;;;;;;;20.11;100.00;99795.16;5109017;28;20200;-66
2023/09/16 10:52:50;;;;;;;14.30;7.00;;;;;;;20.02;100.00;99780.50;5107599;28;20689;-66
2023/09/16 10:55:25;;;;;;;13.17;7.10;;;;;;;20.07;100.00;99780.88;5108570;28;20693;-66
2023/09/16 10:57:56;;;;;;;13.27;6.87;;;;;;;20.03;100.00;99781.31;5108680;28;20201;-66
2023/09/16 11:00:28;;;;;;;12.57;6.93;;;;;;;20.08;100.00;99779.09;5108563;28;20219;-66
2023/09/16 11:02:59;;;;;;;13.57;7.13;;;;;;;20.04;100.00;99773.41;5108647;28;20237;-66
2023/09/16 11:05:27;;;;;;;12.00;6.90;;;;;;;20.01;100.00;99760.72;5108625;28;20295;-66
2023/09/16 11:07:55;;;;;;;14.13;7.53;;;;;;;20.05;100.00;99759.44;5108911;28;20633;-66
2023/09/16 11:10:22;;;;;;;14.73;7.37;;;;;;;19.99;100.00;99749.69;5109047;28;20203;-64
2023/09/16 11:12:50;;;;;;;14.83;7.03;;;;;;;19.95;100.00;99742.34;5110082;28;20196;-65
2023/09/16 11:15:17;;;;;;;11.73;6.93;;;;;;;19.89;100.00;99749.78;5110011;28;20252;-65
2023/09/16 11:17:45;;;;;;;13.97;7.97;;;;;;;20.00;100.00;99740.91;5110051;28;20204;-67
2023/09/16 11:20:14;;;;;;;12.87;7.13;;;;;;;20.02;100.00;99732.97;5110057;28;20208;-66